createdAt,value
2019-03-12T00:00:39.482Z,3.80
2019-03-12T00:01:39.516Z,4.00
2019-03-12T00:02:39.498Z,4.70
2019-03-12T00:03:39.469Z,4.10
2019-03-12T00:04:39.435Z,4.80
2019-03-12T00:05:39.448Z,4.20
2019-03-12T00:06:39.447Z,5.00
2019-03-12T00:07:39.402Z,4.70
2019-03-12T00:08:39.501Z,5.10
2019-03-12T00:09:39.386Z,5.00
2019-03-12T00:10:39.375Z,5.00
2019-03-12T00:11:39.360Z,4.70
2019-03-12T00:12:39.354Z,5.10
2019-03-12T00:13:39.341Z,5.80
2019-03-12T00:14:39.364Z,5.10
2019-03-12T00:15:39.315Z,5.50
2019-03-12T00:16:39.311Z,5.90
2019-03-12T00:17:39.303Z,6.20
2019-03-12T00:18:39.283Z,6.00
2019-03-12T00:19:39.276Z,6.40
2019-03-12T00:20:39.249Z,6.00
2019-03-12T00:21:39.249Z,5.70
2019-03-12T00:22:39.295Z,6.40
2019-03-12T00:23:39.216Z,7.30
2019-03-12T00:24:39.207Z,7.10
2019-03-12T00:25:39.214Z,7.40
2019-03-12T00:26:39.197Z,6.70
2019-03-12T00:27:39.185Z,7.40
2019-03-12T00:28:39.185Z,6.80
2019-03-12T00:29:39.179Z,7.90
2019-03-12T00:30:39.239Z,7.10
2019-03-12T00:31:39.199Z,8.10
2019-03-12T00:32:39.125Z,6.80
2019-03-12T00:33:39.127Z,7.60
2019-03-12T00:34:39.158Z,7.50
2019-03-12T00:35:39.095Z,7.50
2019-03-12T00:36:39.086Z,7.70
2019-03-12T00:37:39.112Z,8.30
2019-03-12T00:38:39.108Z,7.20
2019-03-12T00:39:39.044Z,8.70
2019-03-12T00:40:39.032Z,7.30
2019-03-12T00:41:39.025Z,7.80
2019-03-12T00:42:39.059Z,7.00
2019-03-12T00:43:39.022Z,7.70
2019-03-12T00:44:39.009Z,8.00
2019-03-12T00:45:38.987Z,8.30
2019-03-12T00:46:38.975Z,8.00
2019-03-12T00:47:38.970Z,7.50
2019-03-12T00:48:38.958Z,7.90
2019-03-12T00:49:38.988Z,7.90
2019-03-12T00:50:38.931Z,8.10
2019-03-12T00:51:38.935Z,7.80
2019-03-12T00:52:38.913Z,8.10
2019-03-12T00:53:38.899Z,8.40
2019-03-12T00:54:38.891Z,7.30
2019-03-12T00:55:38.964Z,8.40
2019-03-12T00:56:38.861Z,7.40
2019-03-12T00:57:38.865Z,8.30
2019-03-12T00:58:38.880Z,7.40
2019-03-12T00:59:38.848Z,8.60
2019-03-12T01:00:38.833Z,7.70
2019-03-12T01:01:38.852Z,7.70
2019-03-12T01:02:38.822Z,7.40
2019-03-12T01:03:38.783Z,7.40
2019-03-12T01:04:38.781Z,8.30
2019-03-12T01:05:38.795Z,8.40
2019-03-12T01:06:38.777Z,7.20
2019-03-12T01:07:38.751Z,7.90
2019-03-12T01:08:38.765Z,6.70
2019-03-12T01:09:38.725Z,7.70
2019-03-12T01:10:38.710Z,7.30
2019-03-12T01:11:38.705Z,7.40
2019-03-12T01:12:38.683Z,7.60
2019-03-12T01:13:38.706Z,7.80
2019-03-12T01:14:38.667Z,6.60
2019-03-12T01:15:38.691Z,6.80
2019-03-12T01:16:38.644Z,7.30
2019-03-12T01:17:38.636Z,7.30
2019-03-12T01:18:38.627Z,7.40
2019-03-12T01:19:38.610Z,7.50
2019-03-12T01:20:38.613Z,7.60
2019-03-12T01:21:38.625Z,7.80
2019-03-12T01:22:38.602Z,6.80
2019-03-12T01:23:38.591Z,7.90
2019-03-12T01:24:38.552Z,8.00
2019-03-12T01:25:38.543Z,8.10
2019-03-12T01:26:38.540Z,7.90
2019-03-12T01:27:38.559Z,8.60
2019-03-12T01:28:38.512Z,7.80
2019-03-12T01:29:38.537Z,8.10
2019-03-12T01:30:38.493Z,9.20
2019-03-12T01:31:38.477Z,9.10
2019-03-12T01:32:38.473Z,9.10
2019-03-12T01:33:38.481Z,8.80
2019-03-12T01:34:38.476Z,9.00
2019-03-12T01:35:38.437Z,8.40
2019-03-12T01:36:38.456Z,9.00
2019-03-12T01:37:38.460Z,8.70
2019-03-12T01:38:38.427Z,9.00
2019-03-12T01:39:38.388Z,9.70
2019-03-12T01:40:38.379Z,9.10
2019-03-12T01:41:38.376Z,8.80
2019-03-12T01:42:38.399Z,8.70
2019-03-12T01:43:38.401Z,9.60
2019-03-12T01:44:38.370Z,9.00
2019-03-12T01:45:38.327Z,8.80
2019-03-12T01:46:38.317Z,10.00
2019-03-12T01:47:38.306Z,8.80
2019-03-12T01:48:38.307Z,9.50
2019-03-12T01:49:38.316Z,9.30
2019-03-12T01:50:38.283Z,10.70
2019-03-12T01:51:38.254Z,9.70
2019-03-12T01:52:38.272Z,9.70
2019-03-12T01:53:38.250Z,9.40
2019-03-12T01:54:38.237Z,9.60
2019-03-12T01:55:38.268Z,9.40
2019-03-12T01:56:38.203Z,9.40
2019-03-12T01:57:38.208Z,10.10
2019-03-12T01:58:38.259Z,9.60
2019-03-12T01:59:38.166Z,9.50
2019-03-12T02:00:38.170Z,10.20
2019-03-12T02:01:38.152Z,10.30
2019-03-12T02:02:38.140Z,10.00
2019-03-12T02:03:38.165Z,10.40
2019-03-12T02:04:38.152Z,9.90
2019-03-12T02:05:38.107Z,10.20
2019-03-12T02:06:38.114Z,9.90
2019-03-12T02:07:38.078Z,10.60
2019-03-12T02:08:38.066Z,9.70
2019-03-12T02:09:38.065Z,9.80
2019-03-12T02:10:38.070Z,9.30
2019-03-12T02:11:38.067Z,9.20
2019-03-12T02:12:38.071Z,10.00
2019-03-12T02:13:38.034Z,9.50
2019-03-12T02:14:38.001Z,9.60
2019-03-12T02:15:38.006Z,9.70
2019-03-12T02:16:37.986Z,9.90
2019-03-12T02:17:37.968Z,9.50
2019-03-12T02:18:38.015Z,9.40
2019-03-12T02:19:38.050Z,9.80
2019-03-12T02:20:37.931Z,9.60
2019-03-12T02:21:37.925Z,9.80
2019-03-12T02:22:37.922Z,10.10
2019-03-12T02:23:37.924Z,10.20
2019-03-12T02:24:37.932Z,9.70
2019-03-12T02:25:37.916Z,9.50
2019-03-12T02:26:37.867Z,9.60
2019-03-12T02:27:37.904Z,10.40
2019-03-12T02:28:37.853Z,9.60
2019-03-12T02:29:37.838Z,9.70
2019-03-12T02:30:37.826Z,9.60
2019-03-12T02:31:37.905Z,10.30
2019-03-12T02:32:37.800Z,10.10
2019-03-12T02:33:37.803Z,9.20
2019-03-12T02:34:37.779Z,9.80
2019-03-12T02:35:37.778Z,10.30
2019-03-12T02:36:37.781Z,10.20
2019-03-12T02:37:37.756Z,10.50
2019-03-12T02:38:37.761Z,10.20
2019-03-12T02:39:37.724Z,9.60
2019-03-12T02:40:37.719Z,10.60
2019-03-12T02:41:37.756Z,10.20
2019-03-12T02:42:37.690Z,10.40
2019-03-12T02:43:37.693Z,10.30
2019-03-12T02:44:37.692Z,10.90
2019-03-12T02:45:37.667Z,9.60
2019-03-12T02:46:37.685Z,10.40
2019-03-12T02:47:37.676Z,10.10
2019-03-12T02:48:37.625Z,10.80
2019-03-12T02:49:37.655Z,10.10
2019-03-12T02:50:37.631Z,10.50
2019-03-12T02:51:37.603Z,10.80
2019-03-12T02:52:37.610Z,9.80
2019-03-12T02:53:37.587Z,10.40
2019-03-12T02:54:37.557Z,10.70
2019-03-12T02:55:37.632Z,11.00
2019-03-12T02:56:37.576Z,10.90
2019-03-12T02:57:37.532Z,10.00
2019-03-12T02:58:37.555Z,10.80
2019-03-12T02:59:37.539Z,10.50
2019-03-12T03:00:37.497Z,11.20
2019-03-12T03:01:37.514Z,10.90
2019-03-12T03:02:37.476Z,10.50
2019-03-12T03:03:37.471Z,10.60
2019-03-12T03:04:37.507Z,10.50
2019-03-12T03:05:37.453Z,9.90
2019-03-12T03:06:37.426Z,10.70
2019-03-12T03:07:37.416Z,11.00
2019-03-12T03:08:37.405Z,10.70
2019-03-12T03:09:37.419Z,10.60
2019-03-12T03:10:37.447Z,10.50
2019-03-12T03:11:37.376Z,10.80
2019-03-12T03:12:37.390Z,10.50
2019-03-12T03:13:37.356Z,11.20
2019-03-12T03:14:37.414Z,10.50
2019-03-12T03:15:37.337Z,10.90
2019-03-12T03:16:37.337Z,10.70
2019-03-12T03:17:37.313Z,10.90
2019-03-12T03:18:37.292Z,11.30
2019-03-12T03:19:37.334Z,11.10
2019-03-12T03:20:37.280Z,10.80
2019-03-12T03:21:37.272Z,11.70
2019-03-12T03:22:37.249Z,11.90
2019-03-12T03:23:37.250Z,11.00
2019-03-12T03:24:37.236Z,11.70
2019-03-12T03:25:37.219Z,11.70
2019-03-12T03:26:37.304Z,12.00
2019-03-12T03:27:37.198Z,11.70
2019-03-12T03:28:37.191Z,11.70
2019-03-12T03:29:37.176Z,11.20
2019-03-12T03:30:37.170Z,10.70
2019-03-12T03:31:37.182Z,11.50
2019-03-12T03:32:37.174Z,11.60
2019-03-12T03:33:37.178Z,11.30
2019-03-12T03:34:37.124Z,11.50
2019-03-12T03:35:37.123Z,11.20
2019-03-12T03:36:37.109Z,11.50
2019-03-12T03:37:37.106Z,11.30
2019-03-12T03:38:37.130Z,11.70
2019-03-12T03:39:37.065Z,10.50
2019-03-12T03:40:37.074Z,11.20
2019-03-12T03:41:37.053Z,11.10
2019-03-12T03:42:37.053Z,11.40
2019-03-12T03:43:37.125Z,11.10
2019-03-12T03:44:37.018Z,10.70
2019-03-12T03:45:36.999Z,11.10
2019-03-12T03:46:37.038Z,10.60
2019-03-12T03:47:37.009Z,11.00
2019-03-12T03:48:36.981Z,11.40
2019-03-12T03:49:36.980Z,11.00
2019-03-12T03:50:36.949Z,10.90
2019-03-12T03:51:36.944Z,11.10
2019-03-12T03:52:36.926Z,10.70
2019-03-12T03:53:36.930Z,10.80
2019-03-12T03:54:36.976Z,11.20
2019-03-12T03:55:36.897Z,10.90
2019-03-12T03:56:36.886Z,10.70
2019-03-12T03:57:36.878Z,11.30
2019-03-12T03:58:36.886Z,11.50
2019-03-12T03:59:36.852Z,10.90
2019-03-12T04:00:36.890Z,11.00
2019-03-12T04:01:36.826Z,10.90
2019-03-12T04:02:36.817Z,10.10
2019-03-12T04:03:36.838Z,11.50
2019-03-12T04:04:36.798Z,11.40
2019-03-12T04:05:36.809Z,10.80
2019-03-12T04:06:36.810Z,10.90
2019-03-12T04:07:36.792Z,11.20
2019-03-12T04:08:36.787Z,10.40
2019-03-12T04:09:36.752Z,11.20
2019-03-12T04:10:36.746Z,11.30
2019-03-12T04:11:36.781Z,11.20
2019-03-12T04:12:36.833Z,10.70
2019-03-12T04:13:36.712Z,11.00
2019-03-12T04:14:36.709Z,10.60
2019-03-12T04:15:36.680Z,11.10
2019-03-12T04:16:36.703Z,11.40
2019-03-12T04:17:36.713Z,10.90
2019-03-12T04:18:36.657Z,11.30
2019-03-12T04:19:36.634Z,10.60
2019-03-12T04:20:36.638Z,10.30
2019-03-12T04:21:36.614Z,10.90
2019-03-12T04:22:36.769Z,10.50
2019-03-12T04:23:36.616Z,11.40
2019-03-12T04:24:36.664Z,10.90
2019-03-12T04:25:36.576Z,11.30
2019-03-12T04:26:36.561Z,10.80
2019-03-12T04:27:36.572Z,11.10
2019-03-12T04:28:36.559Z,11.50
2019-03-12T04:29:36.547Z,10.90
2019-03-12T04:30:36.515Z,11.20
2019-03-12T04:31:36.506Z,10.90
2019-03-12T04:32:36.574Z,11.20
2019-03-12T04:33:36.484Z,11.10
2019-03-12T04:34:36.483Z,12.00
2019-03-12T04:35:36.470Z,11.60
2019-03-12T04:36:36.455Z,11.30
2019-03-12T04:37:36.442Z,11.00
2019-03-12T04:38:36.477Z,11.60
2019-03-12T04:39:36.425Z,10.90
2019-03-12T04:40:36.433Z,11.70
2019-03-12T04:41:36.433Z,11.10
2019-03-12T04:42:36.389Z,11.50
2019-03-12T04:43:36.458Z,12.60
2019-03-12T04:44:36.368Z,12.10
2019-03-12T04:45:36.350Z,11.50
2019-03-12T04:46:36.420Z,12.00
2019-03-12T04:47:36.383Z,11.80
2019-03-12T04:48:36.317Z,11.90
2019-03-12T04:49:36.311Z,11.30
2019-03-12T04:50:36.350Z,12.10
2019-03-12T04:51:36.298Z,12.00
2019-03-12T04:52:36.291Z,12.50
2019-03-12T04:53:37.521Z,12.40
2019-03-12T04:54:36.306Z,12.20
2019-03-12T04:55:36.249Z,12.50
2019-03-12T04:56:36.243Z,12.70
2019-03-12T04:57:36.980Z,12.00
2019-03-12T04:58:36.212Z,12.30
2019-03-12T04:59:36.255Z,12.00
2019-03-12T05:00:36.218Z,13.00
2019-03-12T05:01:36.181Z,12.10
2019-03-12T05:02:36.182Z,12.30
2019-03-12T05:03:36.159Z,13.30
2019-03-12T05:04:36.141Z,12.50
2019-03-12T05:05:36.176Z,12.30
2019-03-12T05:06:36.126Z,12.10
2019-03-12T05:07:44.829Z,12.30
2019-03-12T05:08:45.750Z,13.20
2019-03-12T05:10:56.739Z,11.20
2019-03-12T05:12:04.837Z,11.90
2019-03-12T05:12:56.292Z,12.20
2019-03-12T05:13:56.318Z,12.20
2019-03-12T05:14:56.231Z,12.20
2019-03-12T05:15:56.268Z,12.20
2019-03-12T05:16:56.279Z,12.40
2019-03-12T05:17:56.143Z,12.20
2019-03-12T05:18:56.100Z,12.20
2019-03-12T05:19:56.100Z,11.60
2019-03-12T05:20:56.113Z,12.30
2019-03-12T05:21:56.063Z,12.40
2019-03-12T05:22:56.066Z,12.40
2019-03-12T05:23:56.071Z,12.10
2019-03-12T05:24:56.070Z,12.90
2019-03-12T05:25:56.027Z,13.40
2019-03-12T05:26:56.018Z,12.60
2019-03-12T05:27:56.002Z,11.70
2019-03-12T05:28:56.027Z,12.30
2019-03-12T05:29:55.974Z,12.80
2019-03-12T05:30:56.042Z,13.20
2019-03-12T05:31:55.952Z,12.50
2019-03-12T05:32:55.974Z,12.90
2019-03-12T05:33:55.951Z,13.00
2019-03-12T05:34:55.934Z,12.70
2019-03-12T05:35:55.921Z,12.80
2019-03-12T05:36:55.896Z,12.70
2019-03-12T05:37:55.889Z,12.70
2019-03-12T05:38:55.894Z,12.40
2019-03-12T05:39:55.949Z,13.40
2019-03-12T05:40:55.878Z,12.60
2019-03-12T05:41:55.853Z,13.40
2019-03-12T05:42:55.833Z,13.10
2019-03-12T05:43:55.822Z,13.50
2019-03-12T05:44:55.895Z,13.60
2019-03-12T05:45:55.827Z,13.50
2019-03-12T05:46:55.834Z,13.40
2019-03-12T05:47:55.842Z,14.40
2019-03-12T05:48:55.767Z,13.80
2019-03-12T05:49:55.767Z,13.60
2019-03-12T05:50:55.779Z,13.80
2019-03-12T05:51:55.843Z,13.60
2019-03-12T05:52:55.720Z,13.20
2019-03-12T05:53:55.799Z,14.60
2019-03-12T05:54:55.721Z,14.50
2019-03-12T05:55:55.717Z,13.60
2019-03-12T05:56:55.674Z,14.30
2019-03-12T05:57:55.743Z,13.30
2019-03-12T05:58:55.661Z,13.20
2019-03-12T05:59:55.661Z,13.40
2019-03-12T06:00:55.643Z,13.20
2019-03-12T06:01:55.716Z,13.30
2019-03-12T06:02:55.625Z,12.90
2019-03-12T06:03:55.641Z,14.00
2019-03-12T06:04:55.601Z,13.60
2019-03-12T06:05:55.591Z,14.30
2019-03-12T06:06:55.599Z,14.30
2019-03-12T06:07:55.714Z,13.40
2019-03-12T06:08:55.572Z,12.80
2019-03-12T06:09:55.550Z,13.40
2019-03-12T06:10:55.561Z,13.20
2019-03-12T06:11:55.563Z,13.10
2019-03-12T06:12:55.505Z,13.30
2019-03-12T06:13:55.554Z,12.50
2019-03-12T06:14:55.554Z,12.50
2019-03-12T06:15:55.569Z,12.80
2019-03-12T06:16:55.460Z,12.80
2019-03-12T06:17:55.478Z,12.10
2019-03-12T06:18:55.472Z,13.00
2019-03-12T06:19:55.473Z,13.00
2019-03-12T06:20:55.465Z,12.00
2019-03-12T06:21:55.402Z,12.20
2019-03-12T06:22:55.461Z,12.10
2019-03-12T06:23:55.445Z,11.90
2019-03-12T06:24:55.381Z,11.80
2019-03-12T06:25:55.360Z,11.50
2019-03-12T06:26:55.401Z,14.00
2019-03-12T06:27:55.359Z,12.00
2019-03-12T06:28:55.779Z,11.60
2019-03-12T06:29:55.386Z,10.80
2019-03-12T06:30:55.311Z,10.70
2019-03-12T06:31:55.307Z,12.00
2019-03-12T06:32:55.425Z,10.70
2019-03-12T06:33:55.276Z,10.50
2019-03-12T06:34:55.271Z,10.30
2019-03-12T06:35:55.308Z,8.80
2019-03-12T06:36:55.336Z,8.40
2019-03-12T06:37:55.236Z,9.40
2019-03-12T06:38:55.231Z,9.30
2019-03-12T06:39:55.203Z,8.40
2019-03-12T06:40:55.252Z,9.60
2019-03-12T06:41:55.229Z,9.10
2019-03-12T06:42:55.186Z,8.90
2019-03-12T06:43:55.204Z,9.10
2019-03-12T06:44:55.179Z,8.80
2019-03-12T06:45:55.166Z,9.00
2019-03-12T06:46:55.130Z,8.50
2019-03-12T06:47:55.132Z,8.40
2019-03-12T06:48:55.123Z,8.10
2019-03-12T06:49:55.104Z,8.00
2019-03-12T06:50:55.107Z,7.70
2019-03-12T06:51:55.088Z,7.90
2019-03-12T06:52:55.074Z,8.10
2019-03-12T06:53:55.068Z,8.50
2019-03-12T06:54:55.042Z,7.80
2019-03-12T06:55:55.037Z,7.60
2019-03-12T06:56:55.041Z,8.10
2019-03-12T06:57:55.052Z,8.40
2019-03-12T06:58:55.004Z,7.60
2019-03-12T06:59:54.999Z,7.30
2019-03-12T07:00:54.974Z,6.60
2019-03-12T07:01:54.982Z,6.50
2019-03-12T07:02:54.964Z,6.70
2019-03-12T07:03:54.965Z,7.10
2019-03-12T07:04:54.936Z,7.00
2019-03-12T07:05:54.928Z,6.30
2019-03-12T07:06:54.925Z,6.30
2019-03-12T07:07:54.903Z,6.00
2019-03-12T07:08:54.898Z,6.00
2019-03-12T07:09:54.926Z,6.40
2019-03-12T07:10:54.881Z,6.60
2019-03-12T07:11:54.857Z,6.00
2019-03-12T07:12:54.846Z,6.40
2019-03-12T07:13:54.869Z,6.30
2019-03-12T07:14:54.819Z,6.10
2019-03-12T07:15:54.820Z,5.70
2019-03-12T07:16:54.819Z,6.00
2019-03-12T07:17:54.829Z,6.50
2019-03-12T07:18:54.811Z,6.00
2019-03-12T07:19:54.781Z,5.90
2019-03-12T07:20:54.763Z,5.50
2019-03-12T07:21:54.752Z,5.00
2019-03-12T07:22:54.737Z,5.40
2019-03-12T07:23:54.738Z,5.80
2019-03-12T07:24:54.739Z,5.80
2019-03-12T07:25:54.754Z,5.80
2019-03-12T07:26:54.710Z,5.20
2019-03-12T07:27:54.706Z,5.60
2019-03-12T07:28:54.671Z,5.70
2019-03-12T07:29:54.788Z,5.70
2019-03-12T07:30:54.645Z,5.10
2019-03-12T07:31:54.659Z,5.50
2019-03-12T07:32:56.356Z,5.00
2019-03-12T07:33:54.627Z,5.50
2019-03-12T07:34:54.630Z,6.10
2019-03-12T07:35:54.596Z,5.70
2019-03-12T07:36:54.643Z,5.70
2019-03-12T07:37:54.571Z,5.00
2019-03-12T07:38:54.613Z,4.50
2019-03-12T07:39:54.560Z,5.70
2019-03-12T07:40:54.549Z,4.80
2019-03-12T07:41:54.556Z,5.80
2019-03-12T07:42:54.524Z,5.00
2019-03-12T07:43:54.514Z,4.40
2019-03-12T07:44:54.531Z,4.50
2019-03-12T07:45:54.510Z,4.70
2019-03-12T07:46:54.520Z,4.30
2019-03-12T07:47:54.467Z,4.30
2019-03-12T07:48:54.458Z,4.70
2019-03-12T07:49:54.461Z,4.30
2019-03-12T07:50:54.617Z,4.60
2019-03-12T07:51:54.459Z,3.80
2019-03-12T07:52:54.412Z,4.30
2019-03-12T07:53:59.341Z,4.30
2019-03-12T07:54:57.300Z,3.70
2019-03-12T07:55:54.467Z,4.20
2019-03-12T07:56:54.384Z,4.00
2019-03-12T07:57:54.402Z,5.00
2019-03-12T07:58:54.357Z,3.70
2019-03-12T07:59:54.364Z,3.90
2019-03-12T08:00:54.319Z,3.60
2019-03-12T08:01:54.315Z,4.30
2019-03-12T08:02:54.380Z,3.30
2019-03-12T08:03:54.307Z,3.70
2019-03-12T08:04:54.279Z,3.60
2019-03-12T08:05:54.279Z,3.70
2019-03-12T08:06:54.276Z,3.90
2019-03-12T08:07:54.266Z,3.80
2019-03-12T08:08:54.276Z,3.70
2019-03-12T08:09:54.271Z,3.60
2019-03-12T08:10:54.214Z,4.30
2019-03-12T08:11:54.200Z,3.80
2019-03-12T08:12:54.209Z,3.40
2019-03-12T08:13:54.221Z,3.80
2019-03-12T08:14:54.171Z,4.00
2019-03-12T08:15:54.171Z,3.40
2019-03-12T08:16:54.147Z,3.50
2019-03-12T08:17:54.140Z,3.20
2019-03-12T08:18:54.127Z,3.90
2019-03-12T08:19:54.157Z,3.10
2019-03-12T08:20:54.151Z,3.60
2019-03-12T08:21:54.094Z,3.50
2019-03-12T08:22:54.088Z,3.40
2019-03-12T08:23:54.066Z,3.80
2019-03-12T08:24:54.065Z,3.10
2019-03-12T08:25:54.069Z,3.50
2019-03-12T08:26:54.040Z,3.40
2019-03-12T08:27:54.048Z,4.00
2019-03-12T08:28:54.020Z,4.20
2019-03-12T08:29:54.038Z,3.10
2019-03-12T08:30:54.009Z,3.50
2019-03-12T08:31:54.284Z,4.10
2019-03-12T08:32:53.972Z,3.00
2019-03-12T08:33:53.963Z,3.60
2019-03-12T08:34:53.976Z,3.30
2019-03-12T08:35:53.961Z,3.40
2019-03-12T08:36:53.961Z,3.30
2019-03-12T08:37:54.155Z,4.60
2019-03-12T08:38:53.912Z,3.50
2019-03-12T08:39:53.919Z,3.20
2019-03-12T08:40:53.899Z,3.30
2019-03-12T08:41:53.916Z,3.40
2019-03-12T08:42:54.983Z,3.40
2019-03-12T08:43:53.855Z,3.60
2019-03-12T08:44:53.842Z,3.30
2019-03-12T08:45:53.884Z,3.00
2019-03-12T08:46:53.827Z,3.10
2019-03-12T08:47:53.833Z,3.80
2019-03-12T08:48:53.856Z,3.60
2019-03-12T08:49:53.792Z,3.90
2019-03-12T08:50:53.771Z,3.70
2019-03-12T08:51:53.823Z,3.50
2019-03-12T08:52:53.756Z,3.10
2019-03-12T08:53:53.784Z,3.40
2019-03-12T08:54:54.750Z,2.80
2019-03-12T08:55:53.724Z,3.40
2019-03-12T08:56:53.782Z,3.10
2019-03-12T08:57:53.750Z,3.10
2019-03-12T08:58:53.699Z,3.40
2019-03-12T08:59:53.677Z,3.30
2019-03-12T09:00:53.806Z,3.40
2019-03-12T09:01:53.687Z,2.70
2019-03-12T09:02:53.647Z,3.20
2019-03-12T09:03:53.625Z,3.30
2019-03-12T09:04:53.671Z,3.60
2019-03-12T09:05:53.607Z,3.00
2019-03-12T09:06:53.616Z,3.40
2019-03-12T09:07:53.639Z,3.30
2019-03-12T09:08:53.578Z,3.70
2019-03-12T09:09:53.578Z,3.20
2019-03-12T09:10:53.573Z,3.50
2019-03-12T09:11:53.622Z,3.00
2019-03-12T09:12:54.444Z,3.40
2019-03-12T09:13:53.534Z,3.00
2019-03-12T09:14:53.647Z,3.10
2019-03-12T09:15:56.223Z,3.20
2019-03-12T09:16:53.528Z,3.70
2019-03-12T09:17:53.482Z,3.50
2019-03-12T09:18:53.473Z,3.30
2019-03-12T09:19:53.459Z,3.10
2019-03-12T09:20:53.465Z,3.60
2019-03-12T09:21:53.434Z,3.40
2019-03-12T09:22:53.450Z,3.00
2019-03-12T09:23:53.538Z,3.40
2019-03-12T09:24:53.700Z,3.10
2019-03-12T09:25:53.395Z,3.10
2019-03-12T09:26:53.390Z,3.10
2019-03-12T09:27:55.236Z,3.20
2019-03-12T09:28:53.394Z,2.70
2019-03-12T09:29:53.433Z,3.00
2019-03-12T09:30:53.341Z,2.90
2019-03-12T09:31:53.327Z,3.30
2019-03-12T09:32:53.403Z,3.10
2019-03-12T09:33:54.234Z,3.30
2019-03-12T09:34:53.466Z,3.60
2019-03-12T09:35:58.262Z,3.20
2019-03-12T09:36:54.394Z,3.30
2019-03-12T09:37:53.270Z,3.20
2019-03-12T09:38:53.272Z,3.30
2019-03-12T09:39:53.239Z,3.30
2019-03-12T09:40:55.259Z,3.00
2019-03-12T09:41:53.218Z,3.10
2019-03-12T09:42:53.217Z,3.10
2019-03-12T09:43:53.266Z,3.30
2019-03-12T09:44:55.719Z,3.30
2019-03-12T09:45:53.174Z,3.10
2019-03-12T09:46:53.157Z,3.30
2019-03-12T09:47:54.776Z,3.50
2019-03-12T09:48:53.165Z,3.20
2019-03-12T09:49:53.184Z,3.10
2019-03-12T09:50:53.123Z,3.20
2019-03-12T09:51:53.723Z,3.10
2019-03-12T09:52:53.181Z,2.90
2019-03-12T09:53:53.103Z,2.50
2019-03-12T09:54:53.078Z,3.30
2019-03-12T09:55:53.081Z,3.70
2019-03-12T09:56:53.065Z,2.90
2019-03-12T09:57:53.749Z,3.60
2019-03-12T09:58:53.044Z,2.80
2019-03-12T09:59:53.081Z,2.70
2019-03-12T10:00:53.034Z,2.90
2019-03-12T10:01:53.098Z,2.80
2019-03-12T10:02:55.781Z,2.90
2019-03-12T10:03:52.974Z,3.10
2019-03-12T10:04:53.467Z,3.00
2019-03-12T10:05:52.963Z,3.80
2019-03-12T10:06:52.951Z,2.90
2019-03-12T10:07:52.949Z,3.20
2019-03-12T10:08:52.926Z,2.50
2019-03-12T10:09:52.918Z,3.30
2019-03-12T10:10:52.937Z,3.10
2019-03-12T10:11:53.147Z,3.10
2019-03-12T10:12:52.903Z,3.30
2019-03-12T10:13:52.891Z,2.90
2019-03-12T10:14:53.730Z,3.80
2019-03-12T10:17:21.002Z,3.00
2019-03-12T10:18:20.457Z,3.10
2019-03-12T10:19:20.823Z,3.10
2019-03-12T10:20:30.135Z,3.20
2019-03-12T10:21:22.933Z,3.40
2019-03-12T10:22:21.651Z,2.90
2019-03-12T10:23:20.438Z,2.90
2019-03-12T10:24:20.392Z,3.20
2019-03-12T10:25:20.404Z,3.80
2019-03-12T10:26:20.432Z,3.00
2019-03-12T10:27:21.301Z,2.80
2019-03-12T10:28:20.465Z,3.10
2019-03-12T10:29:20.328Z,2.90
2019-03-12T10:30:20.315Z,2.70
2019-03-12T10:31:21.283Z,2.90
2019-03-12T10:32:20.320Z,3.50
2019-03-12T10:33:22.319Z,3.10
2019-03-12T10:34:29.622Z,2.90
2019-03-12T10:35:21.262Z,2.90
2019-03-12T10:36:20.962Z,3.40
2019-03-12T10:37:20.264Z,3.50
2019-03-12T10:38:23.347Z,2.80
2019-03-12T10:39:21.525Z,2.90
2019-03-12T10:40:20.791Z,3.20
2019-03-12T10:41:20.211Z,3.00
2019-03-12T10:48:50.363Z,2.30
2019-03-12T10:49:51.556Z,3.10
2019-03-12T10:50:50.508Z,2.80
2019-03-12T10:51:52.159Z,2.70
2019-03-12T10:55:40.215Z,3.60
2019-03-12T10:56:40.049Z,2.80
2019-03-12T10:57:43.222Z,2.80
2019-03-12T11:00:15.985Z,2.80
2019-03-12T11:06:54.571Z,2.80
2019-03-12T11:07:55.239Z,3.10
2019-03-12T11:27:47.770Z,4.00
2019-03-12T11:48:48.081Z,2.60
2019-03-12T11:49:47.651Z,3.20
2019-03-12T11:50:49.454Z,3.20
2019-03-12T11:51:47.509Z,3.30
2019-03-12T11:53:42.351Z,3.50
2019-03-12T11:58:42.970Z,3.90
2019-03-12T11:59:40.787Z,3.40
2019-03-12T12:00:40.786Z,3.40
2019-03-12T12:01:41.226Z,2.90
2019-03-12T12:02:41.306Z,3.30
2019-03-12T12:03:40.647Z,3.70
2019-03-12T12:04:41.028Z,2.80
2019-03-12T12:05:45.260Z,2.70
2019-03-12T12:06:51.126Z,3.30
2019-03-12T12:07:40.781Z,2.90
2019-03-12T12:08:40.713Z,2.50
2019-03-12T12:14:02.151Z,2.60
2019-03-12T12:21:54.855Z,2.40
2019-03-12T12:35:47.966Z,2.70
2019-03-12T12:36:39.514Z,3.00
2019-03-12T12:44:40.248Z,2.80
2019-03-12T12:45:40.170Z,2.40
2019-03-12T12:55:30.577Z,2.80
2019-03-12T12:56:30.620Z,2.30
2019-03-12T12:58:43.946Z,2.30
2019-03-12T12:59:43.945Z,2.20
2019-03-12T13:00:43.683Z,2.20
2019-03-12T13:01:43.686Z,2.00
2019-03-12T13:02:43.675Z,2.80
2019-03-12T13:03:46.597Z,2.20
2019-03-12T13:06:51.584Z,2.20
2019-03-12T13:07:51.517Z,2.30
2019-03-12T13:08:51.665Z,2.20
2019-03-12T13:09:51.485Z,2.00
2019-03-12T13:10:51.457Z,2.30
2019-03-12T13:17:23.254Z,2.10
2019-03-12T13:18:27.060Z,2.10
2019-03-12T13:19:21.911Z,2.00
2019-03-12T13:21:44.924Z,2.00
2019-03-12T13:26:45.262Z,2.40
2019-03-12T13:27:44.114Z,2.00
2019-03-12T13:30:38.441Z,2.70
2019-03-12T13:31:18.578Z,2.10
2019-03-12T13:32:17.360Z,2.10
2019-03-12T13:33:17.650Z,2.10
2019-03-12T13:34:17.971Z,2.10
2019-03-12T13:42:11.373Z,2.10
2019-03-12T13:43:11.867Z,2.00
2019-03-12T13:44:11.078Z,2.00
2019-03-12T13:45:11.069Z,2.00
2019-03-12T13:46:10.906Z,1.90
2019-03-12T13:47:10.831Z,2.20
2019-03-12T13:48:10.883Z,1.70
2019-03-12T13:49:10.788Z,1.90
2019-03-12T13:50:11.577Z,2.30
2019-03-12T13:51:10.762Z,2.10
2019-03-12T13:52:10.753Z,1.90
2019-03-12T13:53:11.061Z,1.90
2019-03-12T13:54:10.722Z,2.40
2019-03-12T13:55:12.824Z,2.90
2019-03-12T13:56:11.283Z,2.10
2019-03-12T13:57:10.683Z,2.00
2019-03-12T13:58:10.844Z,2.10
2019-03-12T13:59:10.853Z,2.40
2019-03-12T14:00:10.688Z,2.40
2019-03-12T14:01:11.132Z,2.10
2019-03-12T14:02:10.678Z,2.00
2019-03-12T14:03:10.703Z,2.30
2019-03-12T14:04:11.119Z,2.10
2019-03-12T14:05:10.682Z,2.20
2019-03-12T14:07:28.876Z,2.40
2019-03-12T14:08:28.722Z,1.90
2019-03-12T14:09:29.179Z,2.00
2019-03-12T14:11:43.876Z,2.30
2019-03-12T14:12:40.602Z,2.20
2019-03-12T14:13:40.256Z,2.50
2019-03-12T14:14:40.453Z,3.20
2019-03-12T14:15:40.978Z,2.50
2019-03-12T14:16:40.120Z,3.50
2019-03-12T14:17:40.141Z,2.50
2019-03-12T14:18:40.135Z,2.40
2019-03-12T14:19:40.158Z,2.20
2019-03-12T14:20:40.131Z,2.50
2019-03-12T14:24:30.687Z,2.20
2019-03-12T14:25:28.110Z,2.70
2019-03-12T14:26:28.175Z,3.20
2019-03-12T14:27:27.989Z,2.50
2019-03-12T14:28:27.983Z,2.90
2019-03-12T14:29:28.608Z,2.70
2019-03-12T14:30:27.915Z,2.70
2019-03-12T14:31:27.916Z,2.30
2019-03-12T14:32:29.559Z,2.40
2019-03-12T14:33:27.891Z,1.90
2019-03-12T14:34:28.194Z,2.20
2019-03-12T14:35:28.058Z,2.10
2019-03-12T14:36:27.927Z,2.50
2019-03-12T14:37:27.837Z,2.80
2019-03-12T14:38:27.830Z,2.60
2019-03-12T14:39:27.959Z,2.40
2019-03-12T14:40:27.805Z,2.70
2019-03-12T14:41:27.810Z,2.70
2019-03-12T14:42:28.070Z,2.50
2019-03-12T14:43:27.763Z,2.50
2019-03-12T14:44:27.753Z,2.40
2019-03-12T14:45:27.760Z,2.10
2019-03-12T14:46:28.213Z,2.40
2019-03-12T14:47:27.783Z,2.40
2019-03-12T14:48:28.342Z,2.70
2019-03-12T14:49:27.746Z,2.30
2019-03-12T14:50:27.694Z,2.30
2019-03-12T14:51:27.703Z,2.20
2019-03-12T14:52:27.689Z,2.40
2019-03-12T14:53:27.661Z,2.50
2019-03-12T14:54:40.915Z,2.20
2019-03-12T14:55:27.805Z,2.20
2019-03-12T14:56:27.795Z,3.00
2019-03-12T14:57:29.528Z,2.20
2019-03-12T14:58:27.643Z,2.10
2019-03-12T15:01:37.931Z,2.10
2019-03-12T15:02:37.988Z,2.50
2019-03-12T15:03:37.916Z,2.50
2019-03-12T15:04:37.854Z,2.40
2019-03-12T15:05:37.751Z,2.60
2019-03-12T15:06:37.739Z,2.50
2019-03-12T15:07:38.639Z,2.60
2019-03-12T15:08:38.595Z,2.60
2019-03-12T15:09:37.748Z,2.50
2019-03-12T15:10:37.697Z,2.20
2019-03-12T15:11:37.692Z,2.20
2019-03-12T15:12:37.694Z,1.90
2019-03-12T15:13:38.536Z,2.20
2019-03-12T15:14:37.678Z,2.30
2019-03-12T15:15:37.648Z,2.60
2019-03-12T15:16:37.655Z,2.50
2019-03-12T15:17:37.662Z,2.30
2019-03-12T15:18:37.825Z,2.40
2019-03-12T15:19:37.669Z,2.50
2019-03-12T15:20:37.641Z,2.20
2019-03-12T15:21:37.578Z,2.10
2019-03-12T15:22:37.576Z,2.10
2019-03-12T15:23:38.004Z,2.10